Time;durP1;ratioP1;P1;durP2;ratioP2;P2;SDS_P1;SDS_P2;PMS_P1;PMS_P2;Temp;Humidity;BMP_temperature;BMP_pressure;BME280_temperature;BME280_humidity;BME280_pressure;Samples;Min_cycle;Max_cycle;Signal;HPM_P1;HPM_P2
2021/10/05 00:00:06;;;;;;;15.50;7.70;;;;;;;5.75;66.27;100016.77;112352;1190;72855;-23
2021/10/05 00:02:36;;;;;;;13.90;8.10;;;;;;;5.52;66.45;100011.07;112368;1191;62075;-22
2021/10/05 00:05:05;;;;;;;16.00;7.20;;;;;;;5.28;67.23;100015.27;112473;1190;60902;-22
2021/10/05 00:07:33;;;;;;;13.90;7.60;;;;;;;5.05;67.42;100017.27;112544;1190;74221;-22
2021/10/05 00:10:03;;;;;;;13.00;7.70;;;;;;;4.84;67.95;100019.02;112533;1190;75126;-23
2021/10/05 00:12:31;;;;;;;16.40;7.00;;;;;;;4.64;68.44;100013.64;112253;1190;74086;-22
2021/10/05 00:15:00;;;;;;;9.80;6.90;;;;;;;4.46;68.98;100017.29;112498;1190;60828;-23
2021/10/05 00:17:28;;;;;;;16.10;5.00;;;;;;;4.30;69.65;100017.74;112512;1190;60898;-23
2021/10/05 00:19:57;;;;;;;10.40;5.60;;;;;;;4.75;69.56;100020.20;112385;1192;74543;-22
2021/10/05 00:22:27;;;;;;;11.10;6.90;;;;;;;5.38;68.23;100020.30;112390;1192;75701;-22
2021/10/05 00:24:55;;;;;;;11.30;6.30;;;;;;;5.49;67.30;100020.52;112416;1192;72578;-21
2021/10/05 00:27:23;;;;;;;12.40;6.90;;;;;;;5.33;67.31;100023.98;112431;1190;60847;-21
2021/10/05 00:29:52;;;;;;;10.50;6.90;;;;;;;5.08;67.60;100022.13;112511;1190;60836;-21
2021/10/05 00:32:20;;;;;;;11.60;6.90;;;;;;;4.85;68.16;100023.61;112544;1190;74190;-21
2021/10/05 00:34:50;;;;;;;15.00;7.40;;;;;;;4.66;68.34;100027.31;112530;1190;75540;-23
2021/10/05 00:37:18;;;;;;;14.50;7.40;;;;;;;4.52;68.46;100025.98;112224;1192;72295;-21
2021/10/05 00:39:47;;;;;;;11.70;6.10;;;;;;;4.39;69.06;100022.56;112518;1190;61407;-22
2021/10/05 00:42:15;;;;;;;13.90;7.60;;;;;;;4.26;69.39;100024.62;112288;1191;60786;-23
2021/10/05 00:44:43;;;;;;;14.80;5.00;;;;;;;4.18;70.03;100024.58;112211;1192;74229;-23
2021/10/05 00:47:13;;;;;;;11.30;5.60;;;;;;;4.76;69.76;100023.47;112490;1190;75244;-23
2021/10/05 00:49:42;;;;;;;10.60;5.90;;;;;;;5.45;67.82;100027.59;112177;1192;74054;-23
2021/10/05 00:52:11;;;;;;;11.60;6.40;;;;;;;5.59;67.00;100028.88;112231;1190;60775;-23
2021/10/05 00:54:40;;;;;;;14.70;7.20;;;;;;;5.44;66.81;100034.50;112258;1190;60816;-23
2021/10/05 00:57:09;;;;;;;12.00;7.00;;;;;;;5.23;66.97;100035.92;112561;1190;75338;-23
2021/10/05 00:59:38;;;;;;;11.50;6.60;;;;;;;5.01;67.49;100032.41;112250;1190;75646;-23
2021/10/05 01:02:11;;;;;;;11.10;6.50;;;;;;;4.81;67.84;100031.86;112552;1190;72405;-23
2021/10/05 01:04:43;;;;;;;11.70;6.70;;;;;;;4.62;68.40;100031.44;112231;1193;60835;-23
2021/10/05 01:07:16;;;;;;;13.20;6.20;;;;;;;4.46;68.58;100028.63;112201;1191;61718;-22
2021/10/05 01:09:44;;;;;;;11.50;6.30;;;;;;;4.32;69.04;100027.83;112109;1193;74238;-22
2021/10/05 01:12:13;;;;;;;9.60;4.00;;;;;;;4.22;69.32;100025.80;112491;1191;74653;-23
2021/10/05 01:14:43;;;;;;;8.10;5.30;;;;;;;4.75;69.42;100029.49;112444;1190;72873;-23
2021/10/05 01:17:11;;;;;;;13.60;6.00;;;;;;;5.41;67.67;100027.41;112232;1183;60818;-22
2021/10/05 01:19:40;;;;;;;10.80;5.20;;;;;;;5.53;66.98;100030.66;112474;1190;60816;-22
2021/10/05 01:22:08;;;;;;;11.60;6.90;;;;;;;5.39;66.94;100030.95;112419;1191;74433;-22
2021/10/05 01:24:37;;;;;;;12.10;6.50;;;;;;;5.17;67.30;100027.92;112508;1190;75858;-23
2021/10/05 01:27:05;;;;;;;14.50;7.10;;;;;;;4.96;67.56;100026.92;112501;1190;74098;-23
2021/10/05 01:29:34;;;;;;;10.40;6.70;;;;;;;4.76;68.02;100028.45;112534;1190;60858;-22
2021/10/05 01:32:04;;;;;;;11.20;6.30;;;;;;;4.58;68.56;100026.95;112508;1190;61382;-21
2021/10/05 01:34:32;;;;;;;14.70;7.50;;;;;;;4.42;68.64;100029.84;112179;1193;74028;-22
2021/10/05 01:37:00;;;;;;;14.60;6.90;;;;;;;4.26;69.25;100027.70;112500;1190;75623;-22
2021/10/05 01:39:34;;;;;;;8.50;4.20;;;;;;;4.16;69.60;100023.64;112522;1190;74255;-23
2021/10/05 01:42:13;;;;;;;8.70;4.30;;;;;;;4.72;69.62;100029.96;112100;1192;60892;-22
2021/10/05 01:44:42;;;;;;;10.80;5.40;;;;;;;5.33;67.87;100034.30;112221;1190;60833;-22
2021/10/05 01:47:10;;;;;;;14.30;7.10;;;;;;;5.39;67.24;100036.45;112539;1190;74423;-22
2021/10/05 01:49:38;;;;;;;11.80;6.30;;;;;;;5.25;67.17;100035.67;112514;1190;75470;-22
2021/10/05 01:52:07;;;;;;;10.40;6.50;;;;;;;5.06;67.45;100034.79;112468;1190;74089;-22
2021/10/05 01:54:36;;;;;;;10.90;6.20;;;;;;;4.87;67.78;100033.66;112441;1192;60860;-22
2021/10/05 01:57:04;;;;;;;14.00;6.90;;;;;;;4.68;68.31;100031.89;112504;1190;60816;-22
2021/10/05 01:59:33;;;;;;;11.90;5.60;;;;;;;4.51;68.43;100031.00;112487;1190;75109;-22
2021/10/05 02:02:01;;;;;;;11.90;6.60;;;;;;;4.35;68.92;100033.55;112520;1190;75416;-22
2021/10/05 02:04:30;;;;;;;8.50;4.20;;;;;;;4.22;69.32;100038.51;112321;1192;73133;-22
2021/10/05 02:06:59;;;;;;;7.80;4.40;;;;;;;4.67;69.39;100037.95;112317;1191;60838;-22
2021/10/05 02:09:27;;;;;;;10.70;5.70;;;;;;;5.30;67.77;100040.98;112553;1190;61548;-22
2021/10/05 02:11:56;;;;;;;7.90;5.30;;;;;;;5.41;66.92;100040.84;112534;1190;75165;-22
2021/10/05 02:14:24;;;;;;;10.70;6.20;;;;;;;5.27;66.83;100043.34;112448;1190;74771;-22
2021/10/05 02:16:52;;;;;;;11.50;6.60;;;;;;;5.05;67.24;100045.50;112573;1190;74039;-22
2021/10/05 02:19:21;;;;;;;13.10;6.40;;;;;;;4.83;67.64;100041.06;112548;1190;61937;-22
2021/10/05 02:21:49;;;;;;;9.70;6.30;;;;;;;4.63;68.16;100043.45;112501;1190;60800;-23
2021/10/05 02:26:49;;;;;;;11.00;6.10;;;;;;;4.29;68.94;100045.33;112449;1190;75434;-23
2021/10/05 02:29:18;;;;;;;8.60;5.50;;;;;;;4.15;69.24;100044.99;112546;1190;72451;-23
2021/10/05 02:31:48;;;;;;;9.70;4.60;;;;;;;4.05;69.70;100050.52;112181;1192;62563;-24
2021/10/05 02:34:16;;;;;;;9.10;4.40;;;;;;;4.61;69.62;100053.13;112252;1190;60870;-23
2021/10/05 02:36:45;;;;;;;9.80;5.10;;;;;;;5.28;67.82;100053.10;112499;1190;74377;-22
2021/10/05 02:39:13;;;;;;;10.30;5.30;;;;;;;5.41;66.85;100052.05;112507;1190;75710;-22
2021/10/05 02:41:42;;;;;;;11.20;6.70;;;;;;;5.27;66.72;100055.56;112349;1192;73010;-22
2021/10/05 02:44:10;;;;;;;10.70;6.10;;;;;;;5.05;66.97;100054.60;112507;1190;61712;-22
2021/10/05 02:46:38;;;;;;;9.70;6.00;;;;;;;4.83;67.33;100058.27;112468;1190;61398;-22
2021/10/05 02:49:07;;;;;;;8.20;5.70;;;;;;;4.60;67.75;100057.14;112488;1190;74915;-22
2021/10/05 02:51:35;;;;;;;13.50;5.80;;;;;;;4.39;68.17;100060.73;112347;1190;75787;-22
2021/10/05 02:54:03;;;;;;;9.40;5.80;;;;;;;4.19;68.45;100054.80;112351;1192;73223;-22
2021/10/05 02:56:32;;;;;;;10.30;6.60;;;;;;;4.00;68.90;100060.17;112499;1190;60806;-22
2021/10/05 02:59:00;;;;;;;6.20;3.60;;;;;;;3.87;69.55;100061.50;112497;1190;60819;-22
2021/10/05 03:01:29;;;;;;;11.30;4.70;;;;;;;4.33;69.74;100062.14;112577;1190;76255;-22
2021/10/05 03:03:57;;;;;;;7.10;4.80;;;;;;;4.98;68.12;100064.36;112471;1190;74134;-22
2021/10/05 03:06:26;;;;;;;8.60;4.80;;;;;;;5.12;67.30;100067.05;112500;1190;73046;-22
2021/10/05 03:08:55;;;;;;;10.50;5.80;;;;;;;4.99;67.16;100066.74;112540;1190;60866;-22
2021/10/05 03:11:23;;;;;;;10.20;6.10;;;;;;;4.77;67.44;100066.11;112549;1190;60835;-22
2021/10/05 03:13:51;;;;;;;10.00;6.30;;;;;;;4.53;67.88;100067.90;112503;1190;75211;-22
2021/10/05 03:16:20;;;;;;;13.10;6.20;;;;;;;4.31;68.21;100067.73;112524;1190;75688;-22
2021/10/05 03:18:48;;;;;;;12.00;5.70;;;;;;;4.10;68.61;100072.50;112499;1190;73055;-22
2021/10/05 03:21:18;;;;;;;9.90;6.30;;;;;;;3.91;69.23;100067.88;112462;1192;61010;-22
2021/10/05 03:23:47;;;;;;;9.70;5.50;;;;;;;3.75;69.40;100069.87;112421;1190;60790;-23
2021/10/05 03:26:16;;;;;;;8.30;4.60;;;;;;;3.63;70.11;100070.64;112309;1192;73198;-22
2021/10/05 03:28:45;;;;;;;7.70;5.00;;;;;;;4.13;70.17;100068.58;112521;1190;74662;-22
2021/10/05 03:31:13;;;;;;;11.90;5.70;;;;;;;4.80;68.35;100070.09;112563;1190;72810;-20
2021/10/05 03:33:42;;;;;;;12.80;5.60;;;;;;;4.92;67.60;100068.59;112513;1187;61840;-21
2021/10/05 03:36:11;;;;;;;10.50;6.20;;;;;;;4.77;67.34;100064.56;112241;1190;61730;-21
2021/10/05 03:38:39;;;;;;;9.60;6.00;;;;;;;4.53;67.85;100060.68;112357;1192;75420;-20
2021/10/05 03:41:09;;;;;;;10.40;6.10;;;;;;;4.29;68.43;100059.41;112476;1190;74485;-24
2021/10/05 03:43:38;;;;;;;11.40;7.30;;;;;;;4.05;68.97;100058.95;112303;1190;74050;-23
2021/10/05 03:46:06;;;;;;;9.40;5.10;;;;;;;3.85;69.33;100060.21;112485;1192;60767;-23
2021/10/05 03:48:35;;;;;;;10.20;5.90;;;;;;;3.66;69.83;100061.05;112568;1190;61751;-23
2021/10/05 03:51:03;;;;;;;13.20;7.20;;;;;;;3.52;70.14;100062.95;112507;1190;74951;-24
2021/10/05 03:53:31;;;;;;;10.50;4.30;;;;;;;3.39;70.66;100062.20;112490;1190;73937;-25
2021/10/05 03:56:00;;;;;;;10.70;5.50;;;;;;;3.91;70.75;100064.10;112284;1190;73145;-25
2021/10/05 03:58:28;;;;;;;12.90;5.70;;;;;;;4.58;68.93;100067.88;112292;1190;60803;-25
2021/10/05 04:00:57;;;;;;;11.70;5.90;;;;;;;4.72;68.10;100069.40;112328;1190;60755;-23
2021/10/05 04:03:25;;;;;;;9.20;6.10;;;;;;;4.58;68.02;100068.41;112483;1188;75178;-22
2021/10/05 04:08:20;;;;;;;11.60;6.50;;;;;;;4.15;68.69;100070.24;110765;1205;599791;-24
2021/10/05 04:10:48;;;;;;;9.30;6.30;;;;;;;3.89;69.15;100070.34;111897;1196;60761;-24
2021/10/05 04:13:17;;;;;;;10.10;6.70;;;;;;;3.68;69.55;100071.84;111943;1196;60748;-24
2021/10/05 04:15:46;;;;;;;9.80;6.50;;;;;;;3.48;70.03;100074.24;111963;1196;72228;-24
2021/10/05 04:18:15;;;;;;;10.40;6.30;;;;;;;3.31;70.27;100073.31;111867;1195;76101;-24
2021/10/05 04:20:43;;;;;;;9.40;4.50;;;;;;;3.19;71.30;100078.17;111859;1196;73978;-23
2021/10/05 04:23:11;;;;;;;14.40;7.00;;;;;;;3.69;71.13;100088.42;111927;1196;60848;-23
2021/10/05 04:25:40;;;;;;;17.70;10.20;;;;;;;4.38;69.54;100088.45;111664;1195;60835;-23
2021/10/05 04:28:08;;;;;;;20.90;9.90;;;;;;;4.54;68.77;100092.46;111830;1195;73450;-23
2021/10/05 04:30:37;;;;;;;14.40;9.10;;;;;;;4.41;68.77;100094.20;112303;1193;75530;-23
2021/10/05 04:33:05;;;;;;;12.40;8.80;;;;;;;4.17;69.16;100093.04;112229;1192;74025;-23
2021/10/05 04:35:33;;;;;;;12.20;8.50;;;;;;;3.93;69.33;100093.41;112327;1192;60857;-23
2021/10/05 04:38:02;;;;;;;13.60;9.10;;;;;;;3.74;69.59;100093.41;112289;1192;60867;-23
2021/10/05 04:40:30;;;;;;;11.60;8.50;;;;;;;3.56;70.11;100094.76;112248;1192;74378;-23
2021/10/05 04:42:59;;;;;;;13.20;8.70;;;;;;;3.39;70.28;100099.10;112244;1192;75635;-23
2021/10/05 04:45:27;;;;;;;10.70;7.40;;;;;;;3.27;70.83;100105.38;112251;1193;73211;-22
2021/10/05 04:47:55;;;;;;;12.50;5.50;;;;;;;3.23;71.12;100109.09;112184;1193;61609;-22
2021/10/05 04:50:24;;;;;;;13.40;7.70;;;;;;;3.86;71.10;100109.27;112231;1192;60791;-22
2021/10/05 04:52:52;;;;;;;18.50;10.30;;;;;;;4.71;69.18;100116.20;112247;1192;73615;-22
2021/10/05 04:55:21;;;;;;;12.00;6.50;;;;;;;5.00;68.09;100116.94;112207;1193;74692;-23
2021/10/05 04:57:49;;;;;;;12.00;7.20;;;;;;;4.97;67.46;100121.02;112245;1192;74014;-22
2021/10/05 05:00:18;;;;;;;12.30;8.20;;;;;;;4.84;67.73;100121.19;112233;1192;60800;-22
2021/10/05 05:02:46;;;;;;;16.30;7.50;;;;;;;4.71;67.99;100125.00;112256;1192;60843;-22
2021/10/05 05:05:15;;;;;;;13.00;6.80;;;;;;;4.65;67.96;100123.15;112246;1192;73473;-22
2021/10/05 05:07:43;;;;;;;11.20;5.90;;;;;;;4.67;67.66;100125.00;112276;1192;75719;-22
2021/10/05 05:10:11;;;;;;;25.10;8.90;;;;;;;4.70;67.67;100131.55;112246;1192;73024;-22
2021/10/05 05:12:39;;;;;;;20.90;7.70;;;;;;;4.75;67.60;100133.59;112182;1192;61198;-22
2021/10/05 05:15:08;;;;;;;38.90;9.10;;;;;;;4.80;67.60;100137.03;112252;1192;60934;-22
2021/10/05 05:17:36;;;;;;;20.60;5.10;;;;;;;4.86;67.97;100136.44;112305;1192;73239;-21
2021/10/05 05:20:05;;;;;;;32.90;7.00;;;;;;;5.52;67.51;100142.67;112270;1192;75518;-22
2021/10/05 05:22:34;;;;;;;41.90;8.50;;;;;;;6.35;65.77;100146.28;112156;1193;73080;-22
2021/10/05 05:25:06;;;;;;;30.10;7.30;;;;;;;6.62;64.45;100148.46;112235;1184;61783;-22
2021/10/05 05:27:34;;;;;;;31.70;8.80;;;;;;;6.58;63.89;100152.65;112146;1192;61077;-22
2021/10/05 05:30:04;;;;;;;36.60;8.70;;;;;;;6.42;63.81;100151.46;112222;1192;73531;-22
2021/10/05 05:32:34;;;;;;;21.70;6.40;;;;;;;6.25;64.30;100153.29;111956;1192;74663;-22
2021/10/05 05:35:03;;;;;;;22.70;7.90;;;;;;;6.09;64.36;100159.39;112240;1192;72945;-23
2021/10/05 05:37:31;;;;;;;48.20;8.60;;;;;;;5.96;64.68;100160.40;112242;1192;61448;-24
2021/10/05 05:39:59;;;;;;;49.10;8.40;;;;;;;5.86;64.79;100166.57;112267;1192;60811;-23
2021/10/05 05:42:28;;;;;;;87.30;11.90;;;;;;;5.77;64.82;100171.04;112238;1193;74276;-23
2021/10/05 05:44:57;;;;;;;27.20;7.10;;;;;;;5.71;65.10;100174.96;112239;1192;75629;-23
2021/10/05 05:47:25;;;;;;;47.10;10.30;;;;;;;5.67;65.01;100175.64;112244;1192;73075;-23
2021/10/05 05:49:53;;;;;;;38.90;9.00;;;;;;;5.64;64.99;100179.71;112247;1192;60794;-22
2021/10/05 05:52:22;;;;;;;32.80;6.90;;;;;;;5.66;65.04;100184.45;112216;1194;60838;-22
2021/10/05 05:54:50;;;;;;;26.90;5.90;;;;;;;6.30;64.33;100184.45;112245;1192;73483;-22
2021/10/05 05:57:19;;;;;;;35.10;6.20;;;;;;;7.08;62.12;100188.75;112104;1193;74653;-22
2021/10/05 05:59:47;;;;;;;39.40;7.50;;;;;;;7.35;61.28;100194.49;112310;1192;73749;-22
2021/10/05 06:02:15;;;;;;;21.00;6.50;;;;;;;7.36;60.83;100192.91;112236;1192;60903;-22
2021/10/05 06:04:44;;;;;;;12.20;6.00;;;;;;;7.28;61.28;100196.95;112235;1193;60840;-22
2021/10/05 06:07:12;;;;;;;17.50;6.90;;;;;;;7.20;60.85;100192.48;112224;1192;73409;-23
2021/10/05 06:09:41;;;;;;;25.70;6.90;;;;;;;7.11;60.77;100189.48;112255;1193;74594;-22
2021/10/05 06:12:16;;;;;;;18.70;6.00;;;;;;;7.06;61.27;100192.86;112223;1193;73331;-22
2021/10/05 06:14:46;;;;;;;15.70;5.80;;;;;;;7.03;61.44;100198.66;112273;1192;60826;-23
2021/10/05 06:17:15;;;;;;;16.30;6.40;;;;;;;7.02;61.12;100198.73;112116;1192;61709;-22
2021/10/05 06:19:44;;;;;;;21.70;4.40;;;;;;;7.02;60.94;100196.66;112293;1192;73454;-22
2021/10/05 06:22:12;;;;;;;9.60;5.10;;;;;;;7.04;60.85;100195.70;112112;1193;75691;-22
2021/10/05 06:24:40;;;;;;;9.00;4.40;;;;;;;7.07;61.18;100199.17;112266;1186;73149;-22
2021/10/05 06:27:08;;;;;;;9.80;5.40;;;;;;;7.10;60.98;100201.59;112236;1193;60827;-22
2021/10/05 06:29:36;;;;;;;10.50;6.00;;;;;;;7.16;60.20;100200.98;112257;1192;60800;-22
2021/10/05 06:32:05;;;;;;;16.40;5.70;;;;;;;7.22;60.74;100200.89;112236;1193;73406;-21
2021/10/05 06:34:34;;;;;;;10.40;5.10;;;;;;;7.30;60.94;100200.66;112265;1192;74205;-22
2021/10/05 06:37:02;;;;;;;11.10;4.90;;;;;;;7.39;60.27;100196.08;112290;1193;73799;-22
2021/10/05 06:39:32;;;;;;;12.30;5.30;;;;;;;7.46;60.09;100192.77;112248;1193;60793;-23
2021/10/05 06:42:00;;;;;;;9.10;4.50;;;;;;;7.56;59.37;100194.33;112227;1192;61099;-22
2021/10/05 06:44:32;;;;;;;6.20;4.00;;;;;;;7.66;59.44;100195.07;112281;1192;74184;-22
2021/10/05 06:47:00;;;;;;;7.60;2.80;;;;;;;7.78;58.98;100199.30;112246;1192;74691;-22
2021/10/05 06:49:29;;;;;;;16.40;7.40;;;;;;;7.88;58.07;100198.61;112253;1192;73849;-22
2021/10/05 06:51:57;;;;;;;13.10;7.10;;;;;;;7.99;58.55;100200.98;112221;1192;60806;-22
2021/10/05 06:54:26;;;;;;;6.20;3.80;;;;;;;8.11;57.72;100196.87;112279;1191;60813;-22
2021/10/05 06:56:54;;;;;;;8.70;5.10;;;;;;;8.24;57.35;100198.64;112275;1192;74365;-22
2021/10/05 06:59:25;;;;;;;8.30;4.20;;;;;;;8.36;57.51;100198.88;112326;1191;74859;-22
2021/10/05 07:01:53;;;;;;;7.30;4.00;;;;;;;8.51;57.08;100199.44;112279;1192;74087;-22
2021/10/05 07:04:22;;;;;;;10.90;4.50;;;;;;;8.65;56.89;100195.76;112278;1192;61944;-22
2021/10/05 07:06:50;;;;;;;14.00;4.80;;;;;;;8.80;56.53;100197.23;112301;1192;60812;-22
2021/10/05 07:09:19;;;;;;;8.10;4.60;;;;;;;8.96;55.98;100192.66;112330;1192;73436;-22
2021/10/05 07:11:48;;;;;;;7.60;4.50;;;;;;;9.12;55.25;100190.92;112256;1193;75743;-22
2021/10/05 07:14:16;;;;;;;15.60;4.90;;;;;;;9.25;54.08;100192.75;112319;1192;72992;-21
2021/10/05 07:16:44;;;;;;;8.00;3.50;;;;;;;9.39;53.52;100193.52;112225;1193;62159;-22
2021/10/05 07:19:25;;;;;;;7.10;4.00;;;;;;;9.57;53.17;100200.64;112099;1194;60907;-22
2021/10/05 07:21:54;;;;;;;4.60;3.30;;;;;;;9.77;53.58;100203.65;112127;1193;73233;-22
2021/10/05 07:24:23;;;;;;;6.90;3.20;;;;;;;9.95;52.75;100204.59;112214;1192;74827;-22
2021/10/05 07:26:51;;;;;;;8.40;3.90;;;;;;;10.10;51.92;100204.10;112286;1192;72977;-22
2021/10/05 07:29:19;;;;;;;11.30;5.40;;;;;;;10.19;51.80;100208.58;112295;1191;60768;-22
2021/10/05 07:31:48;;;;;;;13.30;5.50;;;;;;;10.31;51.90;100209.23;112321;1192;61349;-22
2021/10/05 07:34:16;;;;;;;8.80;4.50;;;;;;;10.52;52.15;100212.80;112173;1193;74717;-22
2021/10/05 07:36:44;;;;;;;7.30;4.10;;;;;;;10.67;51.16;100208.77;112230;1192;74567;-21
2021/10/05 07:39:13;;;;;;;10.50;4.80;;;;;;;10.79;51.03;100205.89;112278;1192;72844;-21
2021/10/05 07:41:43;;;;;;;6.50;4.20;;;;;;;10.95;50.35;100201.07;112294;1192;61209;-21
2021/10/05 07:44:12;;;;;;;4.30;3.00;;;;;;;11.14;50.73;100207.70;112339;1193;61360;-21
2021/10/05 07:46:40;;;;;;;8.80;3.60;;;;;;;11.29;49.41;100203.57;112338;1192;74147;-22
2021/10/05 07:49:08;;;;;;;7.20;3.90;;;;;;;11.41;49.31;100208.89;112300;1192;75889;-21
2021/10/05 07:51:37;;;;;;;12.60;4.30;;;;;;;11.56;49.66;100212.27;112351;1193;72903;-21
2021/10/05 07:54:05;;;;;;;11.30;3.80;;;;;;;11.69;49.14;100211.67;112341;1193;61723;-21
2021/10/05 07:56:34;;;;;;;7.20;3.40;;;;;;;11.82;48.08;100212.02;112307;1192;60796;-22
2021/10/05 07:59:02;;;;;;;7.30;3.70;;;;;;;11.93;48.22;100210.66;112121;1194;73040;-21
2021/10/05 08:01:31;;;;;;;10.80;3.90;;;;;;;12.01;48.20;100209.94;112333;1193;75497;-21
2021/10/05 08:03:59;;;;;;;3.70;3.00;;;;;;;12.17;47.88;100211.83;112358;1192;73462;-21
2021/10/05 08:06:28;;;;;;;7.60;3.60;;;;;;;12.33;46.35;100206.70;112314;1192;61825;-21
2021/10/05 08:08:56;;;;;;;4.40;3.00;;;;;;;12.42;45.68;100206.92;112310;1193;60805;-21
2021/10/05 08:11:25;;;;;;;7.30;3.40;;;;;;;12.50;45.97;100205.85;112365;1193;74526;-22
2021/10/05 08:13:53;;;;;;;8.60;3.60;;;;;;;12.62;45.75;100203.27;112238;1192;74592;-22
2021/10/05 08:16:30;;;;;;;4.60;2.80;;;;;;;12.80;45.15;100205.80;112362;1193;73056;-21
2021/10/05 08:18:59;;;;;;;6.30;3.00;;;;;;;13.06;44.18;100204.98;112332;1192;61772;-21
2021/10/05 08:21:29;;;;;;;8.40;3.50;;;;;;;13.36;42.98;100200.15;112275;1193;60867;-21
2021/10/05 08:23:58;;;;;;;3.70;2.70;;;;;;;13.65;44.02;100206.23;112185;1193;75199;-22
2021/10/05 08:26:26;;;;;;;6.60;4.00;;;;;;;13.98;41.94;100205.61;112195;1194;74683;-22
2021/10/05 08:28:55;;;;;;;5.90;2.90;;;;;;;14.21;41.09;100205.30;112343;1192;73919;-22
2021/10/05 08:31:23;;;;;;;5.00;2.90;;;;;;;14.45;40.55;100203.36;112348;1193;60816;-22
2021/10/05 08:33:51;;;;;;;4.50;2.80;;;;;;;14.70;40.19;100200.75;112318;1188;61354;-21
2021/10/05 08:36:19;;;;;;;4.80;3.00;;;;;;;14.91;39.39;100201.52;112200;1192;74908;-24
2021/10/05 08:38:48;;;;;;;9.90;3.50;;;;;;;15.08;39.58;100206.39;112318;1193;76169;-20
2021/10/05 08:41:16;;;;;;;7.00;3.50;;;;;;;15.32;39.08;100209.69;112304;1193;74034;-25
2021/10/05 08:43:45;;;;;;;7.30;3.30;;;;;;;15.56;39.03;100207.88;112264;1192;60837;-24
2021/10/05 08:46:13;;;;;;;5.30;3.40;;;;;;;15.78;38.85;100212.90;112341;1192;60761;-22
2021/10/05 08:48:41;;;;;;;6.50;2.80;;;;;;;16.00;37.09;100215.25;112300;1192;75180;-24
2021/10/05 08:51:11;;;;;;;3.60;2.60;;;;;;;16.15;37.64;100217.89;112255;1193;74822;-24
2021/10/05 08:53:40;;;;;;;5.00;3.70;;;;;;;16.30;36.36;100215.50;112315;1193;73179;-24
2021/10/05 08:56:09;;;;;;;7.10;3.60;;;;;;;16.41;37.02;100215.75;112133;1190;61675;-24
2021/10/05 08:58:42;;;;;;;6.40;2.70;;;;;;;16.60;36.33;100210.15;112240;1193;61635;-23
2021/10/05 09:01:15;;;;;;;4.20;2.80;;;;;;;16.71;36.74;100205.27;112366;1192;74335;-24
2021/10/05 09:03:54;;;;;;;4.50;3.00;;;;;;;16.86;35.72;100199.34;112010;1193;74703;-24
2021/10/05 09:06:23;;;;;;;2.90;2.30;;;;;;;16.89;34.96;100194.39;112109;1192;74081;-23
2021/10/05 09:08:55;;;;;;;6.50;3.00;;;;;;;16.86;34.09;100189.93;112048;1194;61709;-23
2021/10/05 09:11:25;;;;;;;11.80;3.90;;;;;;;16.85;34.56;100186.38;112183;1193;61018;-23
2021/10/05 09:13:54;;;;;;;3.60;2.40;;;;;;;16.81;34.23;100180.88;112094;1193;76495;-21
2021/10/05 09:16:25;;;;;;;4.40;3.00;;;;;;;16.85;34.44;100182.81;112221;1192;74971;-21
2021/10/05 09:19:01;;;;;;;4.70;2.80;;;;;;;16.93;34.92;100178.94;112192;1192;72679;-23
2021/10/05 09:21:33;;;;;;;3.20;2.80;;;;;;;17.09;34.99;100181.40;112113;1193;60799;-22
2021/10/05 09:24:13;;;;;;;3.90;2.30;;;;;;;17.30;34.15;100186.30;112164;1193;60816;-22
2021/10/05 09:26:54;;;;;;;3.70;2.40;;;;;;;17.51;33.33;100184.23;112184;1193;73917;-23
2021/10/05 09:29:25;;;;;;;4.60;2.50;;;;;;;17.62;33.53;100181.45;112127;1193;74578;-23
2021/10/05 09:32:00;;;;;;;6.00;2.50;;;;;;;17.73;32.96;100182.95;112156;1192;74160;-22
2021/10/05 09:34:45;;;;;;;2.80;1.90;;;;;;;17.77;32.34;100179.77;112065;1192;60909;-23
2021/10/05 09:37:24;;;;;;;4.20;2.00;;;;;;;17.70;31.93;100178.83;112248;1192;60797;-22
2021/10/05 09:40:00;;;;;;;4.60;2.50;;;;;;;17.55;31.96;100184.04;112107;1194;75376;-22
2021/10/05 09:42:36;;;;;;;4.70;2.80;;;;;;;17.71;32.58;100187.80;112035;1195;76267;-22
2021/10/05 09:45:06;;;;;;;3.20;2.50;;;;;;;17.99;32.27;100184.95;112235;1193;73007;-22
2021/10/05 09:47:55;;;;;;;5.40;2.80;;;;;;;18.03;31.84;100182.45;112200;1193;60868;-22
2021/10/05 09:50:28;;;;;;;4.50;2.50;;;;;;;18.10;32.67;100190.11;112333;1192;61627;-22
2021/10/05 09:52:59;;;;;;;7.50;2.60;;;;;;;18.50;32.26;100189.78;112217;1193;74368;-21
2021/10/05 09:55:32;;;;;;;3.20;2.40;;;;;;;18.62;30.21;100177.67;112097;1193;74798;-22
2021/10/05 09:58:01;;;;;;;5.80;3.20;;;;;;;18.44;30.46;100194.05;112144;1194;73129;-22
2021/10/05 10:00:31;;;;;;;8.90;2.80;;;;;;;18.46;30.09;100192.76;112207;1193;60802;-22
2021/10/05 10:03:00;;;;;;;4.30;2.80;;;;;;;18.41;29.94;100198.98;112206;1193;60780;-22
2021/10/05 10:05:29;;;;;;;4.80;2.80;;;;;;;18.50;29.77;100200.08;112338;1193;73466;-22
2021/10/05 10:07:58;;;;;;;3.00;2.20;;;;;;;18.45;29.36;100196.16;112313;1191;75608;-22
2021/10/05 10:10:28;;;;;;;5.40;3.00;;;;;;;18.34;29.66;100191.80;112424;1192;73161;-22
2021/10/05 10:13:01;;;;;;;4.90;2.30;;;;;;;18.46;29.95;100193.48;112164;1192;61492;-22
2021/10/05 10:15:34;;;;;;;4.30;2.30;;;;;;;18.44;29.62;100190.63;112231;1192;60905;-22
2021/10/05 10:18:19;;;;;;;7.90;2.50;;;;;;;18.54;29.70;100191.84;112145;1193;74224;-22
2021/10/05 10:21:08;;;;;;;5.10;2.30;;;;;;;18.62;29.68;100188.42;112162;1192;75022;-22
2021/10/05 10:23:38;;;;;;;6.30;2.40;;;;;;;18.57;29.66;100182.40;112183;1193;71243;-22
2021/10/05 10:26:08;;;;;;;11.00;3.00;;;;;;;18.67;29.38;100172.84;112225;1193;60818;-22
2021/10/05 10:28:40;;;;;;;3.70;2.50;;;;;;;18.66;29.20;100170.63;112080;1193;60881;-24
2021/10/05 10:31:11;;;;;;;6.70;2.40;;;;;;;18.61;29.28;100173.88;112090;1193;73929;-22
2021/10/05 10:33:50;;;;;;;5.40;2.40;;;;;;;18.66;29.10;100166.56;112215;1193;75618;-22
2021/10/05 10:36:41;;;;;;;7.60;2.60;;;;;;;18.81;29.85;100165.79;112411;1192;72772;-22
2021/10/05 10:39:19;;;;;;;8.00;2.80;;;;;;;18.87;29.41;100167.13;112234;1192;60835;-24
2021/10/05 10:41:54;;;;;;;7.30;2.60;;;;;;;18.93;28.74;100159.69;112183;1193;61418;-22
2021/10/05 10:44:36;;;;;;;6.50;2.20;;;;;;;19.01;28.86;100167.05;112196;1193;75257;-22
2021/10/05 10:47:19;;;;;;;5.20;2.30;;;;;;;19.08;28.71;100163.91;112125;1193;72854;-22
2021/10/05 10:50:01;;;;;;;4.80;3.20;;;;;;;19.11;28.32;100157.27;112153;1193;74033;-22
2021/10/05 10:52:35;;;;;;;5.40;2.50;;;;;;;19.17;28.57;100152.77;112132;1193;60903;-22
2021/10/05 10:55:05;;;;;;;9.20;2.40;;;;;;;19.28;28.39;100150.33;112127;1193;60778;-22
2021/10/05 10:57:38;;;;;;;6.40;2.40;;;;;;;19.27;29.01;100149.13;112165;1193;75562;-22
2021/10/05 11:00:21;;;;;;;4.30;2.70;;;;;;;19.28;28.60;100143.76;112101;1193;74693;-22
2021/10/05 11:02:51;;;;;;;;;;;;;;;19.35;29.31;100147.48;112352;1193;72760;-22
2021/10/05 11:05:23;;;;;;;3.10;2.30;;;;;;;19.52;28.38;100142.75;112180;1193;60792;-22
2021/10/05 11:07:56;;;;;;;7.50;2.50;;;;;;;19.58;29.09;100140.44;112172;1192;60835;-22
2021/10/05 11:10:30;;;;;;;5.70;3.00;;;;;;;19.57;28.17;100137.19;112137;1193;74937;-22
2021/10/05 11:13:00;;;;;;;4.00;2.90;;;;;;;19.57;28.59;100130.46;112197;1193;74460;-22
2021/10/05 11:15:45;;;;;;;6.60;3.00;;;;;;;19.58;28.46;100128.41;112158;1194;74307;-22
2021/10/05 11:18:18;;;;;;;6.30;2.50;;;;;;;19.37;27.96;100123.39;112098;1191;61880;-24
2021/10/05 11:20:59;;;;;;;5.00;2.80;;;;;;;19.13;29.16;100124.66;112210;1192;60783;-23
2021/10/05 11:23:27;;;;;;;2.60;2.00;;;;;;;19.04;29.62;100123.27;112110;1193;74268;-23
2021/10/05 11:25:57;;;;;;;4.60;2.80;;;;;;;19.05;29.56;100122.82;112360;1192;75054;-23
2021/10/05 11:28:28;;;;;;;3.80;2.50;;;;;;;18.90;29.43;100122.23;112081;1193;72248;-22
2021/10/05 11:31:03;;;;;;;3.00;1.90;;;;;;;18.81;29.47;100125.21;112161;1192;60825;-23
2021/10/05 11:33:35;;;;;;;5.70;2.30;;;;;;;18.60;29.01;100123.77;112261;1193;61663;-23
2021/10/05 11:36:14;;;;;;;4.00;2.70;;;;;;;18.43;29.61;100125.02;112148;1193;75188;-23